sensor_id;sensor_type;location;lat;lon;timestamp;P1;durP1;ratioP1;P2;durP2;ratioP2
82005;SDS011;71529;47.484;19.064;2023-07-22T00:00:27;5.95;;;3.80;;
82005;SDS011;71529;47.484;19.064;2023-07-22T00:02:56;6.60;;;3.70;;
82005;SDS011;71529;47.484;19.064;2023-07-22T00:05:24;4.20;;;3.47;;
82005;SDS011;71529;47.484;19.064;2023-07-22T00:07:54;4.30;;;3.30;;
82005;SDS011;71529;47.484;19.064;2023-07-22T00:10:22;7.63;;;3.30;;
82005;SDS011;71529;47.484;19.064;2023-07-22T00:12:51;4.85;;;4.18;;
82005;SDS011;71529;47.484;19.064;2023-07-22T00:15:19;4.85;;;4.30;;
82005;SDS011;71529;47.484;19.064;2023-07-22T00:17:50;11.25;;;4.93;;
82005;SDS011;71529;47.484;19.064;2023-07-22T00:20:19;9.00;;;5.60;;
82005;SDS011;71529;47.484;19.064;2023-07-22T00:22:47;8.88;;;5.25;;
82005;SDS011;71529;47.484;19.064;2023-07-22T00:25:17;6.82;;;4.32;;
82005;SDS011;71529;47.484;19.064;2023-07-22T00:27:45;8.43;;;4.20;;
82005;SDS011;71529;47.484;19.064;2023-07-22T00:30:14;5.47;;;3.70;;
82005;SDS011;71529;47.484;19.064;2023-07-22T00:32:42;4.60;;;3.47;;
82005;SDS011;71529;47.484;19.064;2023-07-22T00:35:10;6.35;;;3.50;;
82005;SDS011;71529;47.484;19.064;2023-07-22T00:37:38;6.45;;;3.45;;
82005;SDS011;71529;47.484;19.064;2023-07-22T00:40:07;8.68;;;3.22;;
82005;SDS011;71529;47.484;19.064;2023-07-22T00:42:38;7.35;;;3.70;;
82005;SDS011;71529;47.484;19.064;2023-07-22T00:45:07;3.95;;;3.30;;
82005;SDS011;71529;47.484;19.064;2023-07-22T00:47:36;5.05;;;3.80;;
82005;SDS011;71529;47.484;19.064;2023-07-22T00:50:06;7.15;;;3.70;;
82005;SDS011;71529;47.484;19.064;2023-07-22T00:52:35;3.60;;;3.28;;
82005;SDS011;71529;47.484;19.064;2023-07-22T00:55:04;4.75;;;3.53;;
82005;SDS011;71529;47.484;19.064;2023-07-22T00:57:33;3.55;;;3.15;;
82005;SDS011;71529;47.484;19.064;2023-07-22T01:00:01;5.13;;;2.88;;
82005;SDS011;71529;47.484;19.064;2023-07-22T01:02:30;5.45;;;3.63;;
82005;SDS011;71529;47.484;19.064;2023-07-22T01:05:00;6.45;;;4.00;;
82005;SDS011;71529;47.484;19.064;2023-07-22T01:07:28;4.03;;;3.53;;
82005;SDS011;71529;47.484;19.064;2023-07-22T01:09:56;4.38;;;3.42;;
82005;SDS011;71529;47.484;19.064;2023-07-22T01:12:25;4.93;;;3.75;;
82005;SDS011;71529;47.484;19.064;2023-07-22T01:14:54;5.28;;;3.30;;
82005;SDS011;71529;47.484;19.064;2023-07-22T01:17:22;6.57;;;3.60;;
82005;SDS011;71529;47.484;19.064;2023-07-22T01:19:51;4.20;;;3.20;;
82005;SDS011;71529;47.484;19.064;2023-07-22T01:22:21;6.45;;;3.25;;
82005;SDS011;71529;47.484;19.064;2023-07-22T01:24:51;4.07;;;3.13;;
82005;SDS011;71529;47.484;19.064;2023-07-22T01:27:19;4.30;;;3.00;;
82005;SDS011;71529;47.484;19.064;2023-07-22T01:29:49;5.30;;;3.72;;
82005;SDS011;71529;47.484;19.064;2023-07-22T01:32:18;7.43;;;3.38;;
82005;SDS011;71529;47.484;19.064;2023-07-22T01:34:46;5.10;;;3.33;;
82005;SDS011;71529;47.484;19.064;2023-07-22T01:37:14;5.97;;;3.15;;
82005;SDS011;71529;47.484;19.064;2023-07-22T01:39:42;5.45;;;3.63;;
82005;SDS011;71529;47.484;19.064;2023-07-22T01:42:12;5.30;;;3.53;;
82005;SDS011;71529;47.484;19.064;2023-07-22T01:44:40;5.90;;;3.25;;
82005;SDS011;71529;47.484;19.064;2023-07-22T01:47:08;6.18;;;3.72;;
82005;SDS011;71529;47.484;19.064;2023-07-22T01:49:36;7.35;;;3.45;;
82005;SDS011;71529;47.484;19.064;2023-07-22T01:52:04;4.05;;;3.17;;
82005;SDS011;71529;47.484;19.064;2023-07-22T01:54:32;4.25;;;3.85;;
82005;SDS011;71529;47.484;19.064;2023-07-22T01:57:00;5.50;;;3.45;;
82005;SDS011;71529;47.484;19.064;2023-07-22T01:59:30;5.35;;;3.30;;
82005;SDS011;71529;47.484;19.064;2023-07-22T02:01:59;4.55;;;3.40;;
82005;SDS011;71529;47.484;19.064;2023-07-22T02:04:27;4.38;;;3.65;;
82005;SDS011;71529;47.484;19.064;2023-07-22T02:06:55;6.07;;;3.53;;
82005;SDS011;71529;47.484;19.064;2023-07-22T02:09:23;4.57;;;3.42;;
82005;SDS011;71529;47.484;19.064;2023-07-22T02:11:51;3.97;;;3.50;;
82005;SDS011;71529;47.484;19.064;2023-07-22T02:14:20;6.28;;;3.10;;
82005;SDS011;71529;47.484;19.064;2023-07-22T02:16:49;4.28;;;3.28;;
82005;SDS011;71529;47.484;19.064;2023-07-22T02:19:17;6.70;;;3.55;;
82005;SDS011;71529;47.484;19.064;2023-07-22T02:21:45;10.00;;;3.28;;
82005;SDS011;71529;47.484;19.064;2023-07-22T02:24:14;5.78;;;3.13;;
82005;SDS011;71529;47.484;19.064;2023-07-22T02:26:43;4.20;;;3.10;;
82005;SDS011;71529;47.484;19.064;2023-07-22T02:29:11;5.40;;;3.17;;
82005;SDS011;71529;47.484;19.064;2023-07-22T02:31:39;5.90;;;3.28;;
82005;SDS011;71529;47.484;19.064;2023-07-22T02:34:09;4.32;;;2.80;;
82005;SDS011;71529;47.484;19.064;2023-07-22T02:36:37;6.15;;;3.15;;
82005;SDS011;71529;47.484;19.064;2023-07-22T02:39:05;7.88;;;3.20;;
82005;SDS011;71529;47.484;19.064;2023-07-22T02:41:36;6.30;;;3.53;;
82005;SDS011;71529;47.484;19.064;2023-07-22T02:44:04;4.18;;;3.30;;
82005;SDS011;71529;47.484;19.064;2023-07-22T02:46:32;9.20;;;3.95;;
82005;SDS011;71529;47.484;19.064;2023-07-22T02:49:00;6.95;;;3.45;;
82005;SDS011;71529;47.484;19.064;2023-07-22T02:51:30;4.63;;;3.10;;
82005;SDS011;71529;47.484;19.064;2023-07-22T02:53:58;7.03;;;4.90;;
82005;SDS011;71529;47.484;19.064;2023-07-22T02:56:26;7.47;;;3.78;;
82005;SDS011;71529;47.484;19.064;2023-07-22T02:58:55;5.13;;;3.65;;
82005;SDS011;71529;47.484;19.064;2023-07-22T03:01:23;5.43;;;3.70;;
82005;SDS011;71529;47.484;19.064;2023-07-22T03:03:51;3.70;;;3.28;;
82005;SDS011;71529;47.484;19.064;2023-07-22T03:06:19;9.07;;;3.67;;
82005;SDS011;71529;47.484;19.064;2023-07-22T03:08:48;8.25;;;3.33;;
82005;SDS011;71529;47.484;19.064;2023-07-22T03:11:18;9.55;;;3.67;;
82005;SDS011;71529;47.484;19.064;2023-07-22T03:13:46;4.82;;;3.13;;
82005;SDS011;71529;47.484;19.064;2023-07-22T03:16:14;8.73;;;3.47;;
82005;SDS011;71529;47.484;19.064;2023-07-22T03:18:42;5.05;;;3.65;;
82005;SDS011;71529;47.484;19.064;2023-07-22T03:21:11;6.50;;;3.70;;
82005;SDS011;71529;47.484;19.064;2023-07-22T03:23:39;5.75;;;3.58;;
82005;SDS011;71529;47.484;19.064;2023-07-22T03:26:08;5.32;;;3.30;;
82005;SDS011;71529;47.484;19.064;2023-07-22T03:28:37;6.60;;;3.70;;
82005;SDS011;71529;47.484;19.064;2023-07-22T03:31:05;7.22;;;3.35;;
82005;SDS011;71529;47.484;19.064;2023-07-22T03:33:33;6.85;;;3.53;;
82005;SDS011;71529;47.484;19.064;2023-07-22T03:36:01;7.72;;;3.42;;
82005;SDS011;71529;47.484;19.064;2023-07-22T03:38:29;8.80;;;4.25;;
82005;SDS011;71529;47.484;19.064;2023-07-22T03:40:57;11.35;;;6.40;;
82005;SDS011;71529;47.484;19.064;2023-07-22T03:43:26;7.63;;;3.85;;
82005;SDS011;71529;47.484;19.064;2023-07-22T03:45:54;4.50;;;3.85;;
82005;SDS011;71529;47.484;19.064;2023-07-22T03:48:22;7.82;;;4.50;;
82005;SDS011;71529;47.484;19.064;2023-07-22T03:50:51;7.47;;;4.78;;
82005;SDS011;71529;47.484;19.064;2023-07-22T03:53:34;5.88;;;4.03;;
82005;SDS011;71529;47.484;19.064;2023-07-22T03:56:02;8.65;;;4.18;;
82005;SDS011;71529;47.484;19.064;2023-07-22T03:58:31;5.90;;;4.00;;
82005;SDS011;71529;47.484;19.064;2023-07-22T04:01:00;5.25;;;4.20;;
82005;SDS011;71529;47.484;19.064;2023-07-22T04:03:28;7.38;;;4.05;;
82005;SDS011;71529;47.484;19.064;2023-07-22T04:05:56;5.80;;;3.33;;
82005;SDS011;71529;47.484;19.064;2023-07-22T04:08:24;5.70;;;3.85;;
82005;SDS011;71529;47.484;19.064;2023-07-22T04:10:52;10.63;;;4.75;;
82005;SDS011;71529;47.484;19.064;2023-07-22T04:13:20;6.40;;;4.95;;
82005;SDS011;71529;47.484;19.064;2023-07-22T04:15:51;7.28;;;4.20;;
82005;SDS011;71529;47.484;19.064;2023-07-22T04:18:20;6.47;;;3.70;;
82005;SDS011;71529;47.484;19.064;2023-07-22T04:20:48;6.15;;;4.10;;
82005;SDS011;71529;47.484;19.064;2023-07-22T04:23:22;7.07;;;3.88;;
82005;SDS011;71529;47.484;19.064;2023-07-22T04:25:50;12.10;;;4.55;;
82005;SDS011;71529;47.484;19.064;2023-07-22T04:28:18;5.30;;;3.97;;
82005;SDS011;71529;47.484;19.064;2023-07-22T04:30:55;10.32;;;4.68;;
82005;SDS011;71529;47.484;19.064;2023-07-22T04:33:25;7.30;;;4.45;;
82005;SDS011;71529;47.484;19.064;2023-07-22T04:35:53;8.02;;;4.10;;
82005;SDS011;71529;47.484;19.064;2023-07-22T04:38:23;8.48;;;4.80;;
82005;SDS011;71529;47.484;19.064;2023-07-22T04:40:51;10.18;;;5.22;;
82005;SDS011;71529;47.484;19.064;2023-07-22T04:43:19;7.15;;;4.70;;
82005;SDS011;71529;47.484;19.064;2023-07-22T04:45:48;9.00;;;4.20;;
82005;SDS011;71529;47.484;19.064;2023-07-22T04:48:18;10.90;;;4.65;;
82005;SDS011;71529;47.484;19.064;2023-07-22T04:50:47;9.60;;;5.15;;
82005;SDS011;71529;47.484;19.064;2023-07-22T04:53:16;6.43;;;5.22;;
82005;SDS011;71529;47.484;19.064;2023-07-22T04:55:44;8.07;;;4.47;;
82005;SDS011;71529;47.484;19.064;2023-07-22T04:58:12;8.00;;;4.40;;
82005;SDS011;71529;47.484;19.064;2023-07-22T05:00:40;7.20;;;5.07;;
82005;SDS011;71529;47.484;19.064;2023-07-22T05:03:09;5.15;;;3.75;;
82005;SDS011;71529;47.484;19.064;2023-07-22T05:05:38;7.15;;;3.88;;
82005;SDS011;71529;47.484;19.064;2023-07-22T05:08:06;7.38;;;3.47;;
82005;SDS011;71529;47.484;19.064;2023-07-22T05:10:36;7.82;;;4.10;;
82005;SDS011;71529;47.484;19.064;2023-07-22T05:13:04;6.50;;;3.80;;
82005;SDS011;71529;47.484;19.064;2023-07-22T05:15:32;6.43;;;3.75;;
82005;SDS011;71529;47.484;19.064;2023-07-22T05:18:00;6.97;;;3.85;;
82005;SDS011;71529;47.484;19.064;2023-07-22T05:20:28;6.47;;;3.70;;
82005;SDS011;71529;47.484;19.064;2023-07-22T05:22:58;4.25;;;3.80;;
82005;SDS011;71529;47.484;19.064;2023-07-22T05:25:26;5.25;;;4.10;;
82005;SDS011;71529;47.484;19.064;2023-07-22T05:27:54;5.35;;;3.67;;
82005;SDS011;71529;47.484;19.064;2023-07-22T05:30:22;7.20;;;4.35;;
82005;SDS011;71529;47.484;19.064;2023-07-22T05:33:01;5.68;;;3.70;;
82005;SDS011;71529;47.484;19.064;2023-07-22T05:35:29;5.82;;;3.97;;
82005;SDS011;71529;47.484;19.064;2023-07-22T05:37:59;6.38;;;4.20;;
82005;SDS011;71529;47.484;19.064;2023-07-22T05:40:27;5.85;;;3.78;;
82005;SDS011;71529;47.484;19.064;2023-07-22T05:42:55;5.80;;;4.00;;
82005;SDS011;71529;47.484;19.064;2023-07-22T05:45:23;6.90;;;3.60;;
82005;SDS011;71529;47.484;19.064;2023-07-22T05:47:51;11.52;;;3.55;;
82005;SDS011;71529;47.484;19.064;2023-07-22T05:50:19;8.75;;;4.15;;
82005;SDS011;71529;47.484;19.064;2023-07-22T05:52:47;6.43;;;4.20;;
82005;SDS011;71529;47.484;19.064;2023-07-22T05:55:17;7.65;;;4.47;;
82005;SDS011;71529;47.484;19.064;2023-07-22T05:57:45;7.20;;;4.43;;
82005;SDS011;71529;47.484;19.064;2023-07-22T06:00:14;4.80;;;4.18;;
82005;SDS011;71529;47.484;19.064;2023-07-22T06:02:42;5.88;;;4.30;;
82005;SDS011;71529;47.484;19.064;2023-07-22T06:05:10;5.93;;;4.50;;
82005;SDS011;71529;47.484;19.064;2023-07-22T06:07:38;6.53;;;4.75;;
82005;SDS011;71529;47.484;19.064;2023-07-22T06:10:06;7.75;;;5.05;;
82005;SDS011;71529;47.484;19.064;2023-07-22T06:12:37;8.73;;;4.20;;
82005;SDS011;71529;47.484;19.064;2023-07-22T06:15:06;11.35;;;5.38;;
82005;SDS011;71529;47.484;19.064;2023-07-22T06:17:35;7.40;;;4.82;;
82005;SDS011;71529;47.484;19.064;2023-07-22T06:20:03;6.32;;;4.20;;
82005;SDS011;71529;47.484;19.064;2023-07-22T06:22:35;6.50;;;4.25;;
82005;SDS011;71529;47.484;19.064;2023-07-22T06:25:04;8.20;;;4.00;;
82005;SDS011;71529;47.484;19.064;2023-07-22T06:27:33;13.98;;;8.50;;
82005;SDS011;71529;47.484;19.064;2023-07-22T06:30:03;12.10;;;8.40;;
82005;SDS011;71529;47.484;19.064;2023-07-22T06:32:33;7.30;;;5.78;;
82005;SDS011;71529;47.484;19.064;2023-07-22T06:35:02;7.05;;;5.10;;
82005;SDS011;71529;47.484;19.064;2023-07-22T06:37:31;6.22;;;4.72;;
82005;SDS011;71529;47.484;19.064;2023-07-22T06:39:59;5.65;;;4.00;;
82005;SDS011;71529;47.484;19.064;2023-07-22T06:42:27;8.38;;;4.05;;
82005;SDS011;71529;47.484;19.064;2023-07-22T06:44:55;5.85;;;4.50;;
82005;SDS011;71529;47.484;19.064;2023-07-22T06:47:25;6.38;;;5.00;;
82005;SDS011;71529;47.484;19.064;2023-07-22T06:49:53;9.25;;;4.35;;
82005;SDS011;71529;47.484;19.064;2023-07-22T06:52:21;5.45;;;3.75;;
82005;SDS011;71529;47.484;19.064;2023-07-22T06:54:49;6.00;;;4.10;;
82005;SDS011;71529;47.484;19.064;2023-07-22T06:57:17;7.53;;;3.95;;
82005;SDS011;71529;47.484;19.064;2023-07-22T06:59:45;10.40;;;4.88;;
82005;SDS011;71529;47.484;19.064;2023-07-22T07:02:13;6.00;;;4.00;;
82005;SDS011;71529;47.484;19.064;2023-07-22T07:04:42;5.55;;;3.97;;
82005;SDS011;71529;47.484;19.064;2023-07-22T07:07:10;7.50;;;4.20;;
82005;SDS011;71529;47.484;19.064;2023-07-22T07:09:39;10.27;;;4.45;;
82005;SDS011;71529;47.484;19.064;2023-07-22T07:12:07;7.53;;;4.45;;
82005;SDS011;71529;47.484;19.064;2023-07-22T07:14:36;9.80;;;4.28;;
82005;SDS011;71529;47.484;19.064;2023-07-22T07:17:04;8.35;;;4.70;;
82005;SDS011;71529;47.484;19.064;2023-07-22T07:19:32;10.75;;;7.07;;
82005;SDS011;71529;47.484;19.064;2023-07-22T07:22:02;8.32;;;6.10;;
82005;SDS011;71529;47.484;19.064;2023-07-22T07:24:30;7.32;;;5.13;;
82005;SDS011;71529;47.484;19.064;2023-07-22T07:26:58;6.10;;;4.60;;
82005;SDS011;71529;47.484;19.064;2023-07-22T07:29:26;9.38;;;4.53;;
82005;SDS011;71529;47.484;19.064;2023-07-22T07:32:14;6.13;;;5.00;;
82005;SDS011;71529;47.484;19.064;2023-07-22T07:34:42;5.05;;;3.60;;
82005;SDS011;71529;47.484;19.064;2023-07-22T07:37:11;5.97;;;3.72;;
82005;SDS011;71529;47.484;19.064;2023-07-22T07:39:39;4.50;;;3.28;;
82005;SDS011;71529;47.484;19.064;2023-07-22T07:42:07;4.60;;;3.63;;
82005;SDS011;71529;47.484;19.064;2023-07-22T07:44:35;6.35;;;3.70;;
82005;SDS011;71529;47.484;19.064;2023-07-22T07:47:04;5.25;;;3.78;;
82005;SDS011;71529;47.484;19.064;2023-07-22T07:49:33;4.13;;;3.40;;
82005;SDS011;71529;47.484;19.064;2023-07-22T07:52:01;5.75;;;3.42;;
82005;SDS011;71529;47.484;19.064;2023-07-22T07:54:30;7.07;;;3.60;;
82005;SDS011;71529;47.484;19.064;2023-07-22T07:56:58;7.80;;;3.70;;
82005;SDS011;71529;47.484;19.064;2023-07-22T07:59:27;6.93;;;3.80;;
82005;SDS011;71529;47.484;19.064;2023-07-22T08:01:55;4.43;;;3.63;;
82005;SDS011;71529;47.484;19.064;2023-07-22T08:04:23;5.88;;;3.58;;
82005;SDS011;71529;47.484;19.064;2023-07-22T08:06:51;20.63;;;5.03;;
82005;SDS011;71529;47.484;19.064;2023-07-22T08:09:19;4.00;;;3.17;;
82005;SDS011;71529;47.484;19.064;2023-07-22T08:11:49;7.05;;;4.50;;
82005;SDS011;71529;47.484;19.064;2023-07-22T08:14:17;8.02;;;4.15;;
82005;SDS011;71529;47.484;19.064;2023-07-22T08:16:45;4.18;;;3.63;;
82005;SDS011;71529;47.484;19.064;2023-07-22T08:19:13;10.27;;;5.13;;
82005;SDS011;71529;47.484;19.064;2023-07-22T08:21:41;9.93;;;4.80;;
82005;SDS011;71529;47.484;19.064;2023-07-22T08:24:09;6.65;;;4.20;;
82005;SDS011;71529;47.484;19.064;2023-07-22T08:26:37;9.63;;;4.57;;
82005;SDS011;71529;47.484;19.064;2023-07-22T08:29:06;3.70;;;3.40;;
82005;SDS011;71529;47.484;19.064;2023-07-22T08:31:34;5.50;;;3.65;;
82005;SDS011;71529;47.484;19.064;2023-07-22T08:34:03;6.20;;;3.90;;
82005;SDS011;71529;47.484;19.064;2023-07-22T08:36:31;4.40;;;3.55;;
82005;SDS011;71529;47.484;19.064;2023-07-22T08:39:00;8.05;;;4.38;;
82005;SDS011;71529;47.484;19.064;2023-07-22T08:41:28;5.47;;;4.00;;
82005;SDS011;71529;47.484;19.064;2023-07-22T08:43:57;6.50;;;3.90;;
82005;SDS011;71529;47.484;19.064;2023-07-22T08:46:29;5.28;;;4.00;;
82005;SDS011;71529;47.484;19.064;2023-07-22T08:48:58;8.48;;;3.92;;
82005;SDS011;71529;47.484;19.064;2023-07-22T08:51:27;6.68;;;4.22;;
82005;SDS011;71529;47.484;19.064;2023-07-22T08:53:59;8.07;;;3.85;;
82005;SDS011;71529;47.484;19.064;2023-07-22T08:56:37;5.03;;;3.25;;
82005;SDS011;71529;47.484;19.064;2023-07-22T08:59:06;6.28;;;3.60;;
82005;SDS011;71529;47.484;19.064;2023-07-22T09:01:36;4.18;;;3.53;;
82005;SDS011;71529;47.484;19.064;2023-07-22T09:04:07;5.85;;;3.63;;
82005;SDS011;71529;47.484;19.064;2023-07-22T09:06:36;7.05;;;4.03;;
82005;SDS011;71529;47.484;19.064;2023-07-22T09:09:04;8.27;;;4.47;;
82005;SDS011;71529;47.484;19.064;2023-07-22T09:11:34;8.73;;;4.53;;
82005;SDS011;71529;47.484;19.064;2023-07-22T09:14:03;6.78;;;4.70;;
82005;SDS011;71529;47.484;19.064;2023-07-22T09:16:32;11.80;;;3.92;;
82005;SDS011;71529;47.484;19.064;2023-07-22T09:19:03;5.03;;;3.70;;
82005;SDS011;71529;47.484;19.064;2023-07-22T09:21:32;5.45;;;3.50;;
82005;SDS011;71529;47.484;19.064;2023-07-22T09:24:07;6.13;;;4.00;;
82005;SDS011;71529;47.484;19.064;2023-07-22T09:26:48;6.10;;;3.70;;
82005;SDS011;71529;47.484;19.064;2023-07-22T09:29:16;8.40;;;4.50;;
82005;SDS011;71529;47.484;19.064;2023-07-22T09:31:48;7.13;;;4.43;;
82005;SDS011;71529;47.484;19.064;2023-07-22T09:34:19;4.90;;;4.28;;
82005;SDS011;71529;47.484;19.064;2023-07-22T09:36:52;7.25;;;4.75;;
82005;SDS011;71529;47.484;19.064;2023-07-22T09:39:21;10.47;;;3.47;;
82005;SDS011;71529;47.484;19.064;2023-07-22T09:41:50;7.07;;;3.50;;
82005;SDS011;71529;47.484;19.064;2023-07-22T09:44:19;4.28;;;3.10;;
82005;SDS011;71529;47.484;19.064;2023-07-22T09:46:48;5.43;;;3.50;;
82005;SDS011;71529;47.484;19.064;2023-07-22T09:49:18;4.40;;;3.45;;
82005;SDS011;71529;47.484;19.064;2023-07-22T09:51:47;4.25;;;3.15;;
82005;SDS011;71529;47.484;19.064;2023-07-22T09:54:28;6.10;;;3.67;;
82005;SDS011;71529;47.484;19.064;2023-07-22T09:56:57;6.07;;;3.85;;
82005;SDS011;71529;47.484;19.064;2023-07-22T09:59:26;3.53;;;3.03;;
82005;SDS011;71529;47.484;19.064;2023-07-22T10:01:57;3.95;;;3.22;;
82005;SDS011;71529;47.484;19.064;2023-07-22T10:04:31;4.45;;;3.08;;
82005;SDS011;71529;47.484;19.064;2023-07-22T10:07:03;3.13;;;2.47;;
82005;SDS011;71529;47.484;19.064;2023-07-22T10:09:31;3.85;;;2.70;;
82005;SDS011;71529;47.484;19.064;2023-07-22T10:12:02;5.45;;;3.75;;
82005;SDS011;71529;47.484;19.064;2023-07-22T10:14:31;6.47;;;4.90;;
82005;SDS011;71529;47.484;19.064;2023-07-22T10:17:03;9.57;;;4.93;;
82005;SDS011;71529;47.484;19.064;2023-07-22T10:19:35;6.90;;;4.35;;
82005;SDS011;71529;47.484;19.064;2023-07-22T10:22:03;4.65;;;3.58;;
82005;SDS011;71529;47.484;19.064;2023-07-22T10:24:34;8.20;;;3.83;;
82005;SDS011;71529;47.484;19.064;2023-07-22T10:27:03;6.57;;;4.07;;
82005;SDS011;71529;47.484;19.064;2023-07-22T10:29:32;7.13;;;3.60;;
82005;SDS011;71529;47.484;19.064;2023-07-22T10:32:01;5.05;;;3.80;;
82005;SDS011;71529;47.484;19.064;2023-07-22T10:34:31;6.03;;;4.45;;
82005;SDS011;71529;47.484;19.064;2023-07-22T10:37:00;4.28;;;3.00;;
82005;SDS011;71529;47.484;19.064;2023-07-22T10:39:30;5.85;;;3.03;;
82005;SDS011;71529;47.484;19.064;2023-07-22T10:42:01;5.35;;;4.28;;
82005;SDS011;71529;47.484;19.064;2023-07-22T10:44:31;6.70;;;5.15;;
82005;SDS011;71529;47.484;19.064;2023-07-22T10:47:00;10.15;;;6.00;;
82005;SDS011;71529;47.484;19.064;2023-07-22T10:49:42;6.47;;;5.53;;
82005;SDS011;71529;47.484;19.064;2023-07-22T10:52:13;10.52;;;7.97;;
82005;SDS011;71529;47.484;19.064;2023-07-22T10:54:41;10.55;;;7.75;;
82005;SDS011;71529;47.484;19.064;2023-07-22T10:59:58;8.88;;;4.97;;
82005;SDS011;71529;47.484;19.064;2023-07-22T11:02:27;8.15;;;5.53;;
82005;SDS011;71529;47.484;19.064;2023-07-22T11:04:57;6.65;;;4.65;;
82005;SDS011;71529;47.484;19.064;2023-07-22T11:07:31;7.45;;;4.28;;
82005;SDS011;71529;47.484;19.064;2023-07-22T11:10:10;11.00;;;3.42;;
82005;SDS011;71529;47.484;19.064;2023-07-22T11:12:41;6.13;;;3.25;;
82005;SDS011;71529;47.484;19.064;2023-07-22T11:15:10;4.95;;;2.83;;
82005;SDS011;71529;47.484;19.064;2023-07-22T11:17:38;6.32;;;2.65;;
82005;SDS011;71529;47.484;19.064;2023-07-22T11:20:06;2.55;;;2.35;;
82005;SDS011;71529;47.484;19.064;2023-07-22T11:22:36;9.23;;;2.88;;
82005;SDS011;71529;47.484;19.064;2023-07-22T11:25:07;2.42;;;2.17;;
82005;SDS011;71529;47.484;19.064;2023-07-22T11:27:35;3.40;;;2.65;;
82005;SDS011;71529;47.484;19.064;2023-07-22T11:30:04;3.03;;;2.40;;
82005;SDS011;71529;47.484;19.064;2023-07-22T11:32:33;4.47;;;2.20;;
82005;SDS011;71529;47.484;19.064;2023-07-22T11:35:02;5.20;;;2.25;;
82005;SDS011;71529;47.484;19.064;2023-07-22T11:37:30;3.17;;;2.75;;
82005;SDS011;71529;47.484;19.064;2023-07-22T11:40:01;2.80;;;2.28;;
82005;SDS011;71529;47.484;19.064;2023-07-22T11:42:32;5.63;;;3.90;;
82005;SDS011;71529;47.484;19.064;2023-07-22T11:45:02;6.50;;;5.25;;
82005;SDS011;71529;47.484;19.064;2023-07-22T11:47:30;4.47;;;3.28;;
82005;SDS011;71529;47.484;19.064;2023-07-22T11:49:58;3.50;;;2.92;;
82005;SDS011;71529;47.484;19.064;2023-07-22T11:52:27;4.82;;;2.40;;
82005;SDS011;71529;47.484;19.064;2023-07-22T11:54:55;6.30;;;3.90;;
82005;SDS011;71529;47.484;19.064;2023-07-22T11:57:31;6.53;;;2.80;;
82005;SDS011;71529;47.484;19.064;2023-07-22T11:59:59;2.20;;;1.90;;
82005;SDS011;71529;47.484;19.064;2023-07-22T12:02:28;4.00;;;2.70;;
82005;SDS011;71529;47.484;19.064;2023-07-22T12:05:00;7.10;;;2.85;;
82005;SDS011;71529;47.484;19.064;2023-07-22T12:07:29;4.93;;;3.17;;
82005;SDS011;71529;47.484;19.064;2023-07-22T12:09:59;5.25;;;3.20;;
82005;SDS011;71529;47.484;19.064;2023-07-22T12:12:34;6.20;;;4.07;;
82005;SDS011;71529;47.484;19.064;2023-07-22T12:15:04;3.28;;;2.78;;
82005;SDS011;71529;47.484;19.064;2023-07-22T12:17:43;4.35;;;3.70;;
82005;SDS011;71529;47.484;19.064;2023-07-22T12:20:15;4.85;;;3.65;;
82005;SDS011;71529;47.484;19.064;2023-07-22T12:22:44;5.85;;;2.97;;
82005;SDS011;71529;47.484;19.064;2023-07-22T12:25:21;3.17;;;2.60;;
82005;SDS011;71529;47.484;19.064;2023-07-22T12:27:51;5.53;;;4.30;;
82005;SDS011;71529;47.484;19.064;2023-07-22T12:30:19;9.45;;;4.63;;
82005;SDS011;71529;47.484;19.064;2023-07-22T12:32:48;6.13;;;4.35;;
82005;SDS011;71529;47.484;19.064;2023-07-22T12:35:16;6.45;;;4.18;;
82005;SDS011;71529;47.484;19.064;2023-07-22T12:37:44;6.35;;;4.82;;
82005;SDS011;71529;47.484;19.064;2023-07-22T12:40:12;7.05;;;4.00;;
82005;SDS011;71529;47.484;19.064;2023-07-22T12:42:41;10.30;;;3.97;;
82005;SDS011;71529;47.484;19.064;2023-07-22T12:45:10;4.05;;;3.40;;
82005;SDS011;71529;47.484;19.064;2023-07-22T12:47:38;10.27;;;6.93;;
82005;SDS011;71529;47.484;19.064;2023-07-22T12:50:07;7.80;;;4.75;;
82005;SDS011;71529;47.484;19.064;2023-07-22T12:52:35;7.95;;;3.90;;
82005;SDS011;71529;47.484;19.064;2023-07-22T12:55:04;10.30;;;4.15;;
82005;SDS011;71529;47.484;19.064;2023-07-22T12:57:32;3.50;;;2.55;;
82005;SDS011;71529;47.484;19.064;2023-07-22T13:00:00;7.25;;;2.90;;
82005;SDS011;71529;47.484;19.064;2023-07-22T13:02:33;5.78;;;1.80;;
82005;SDS011;71529;47.484;19.064;2023-07-22T13:05:01;8.13;;;4.53;;
82005;SDS011;71529;47.484;19.064;2023-07-22T13:07:30;3.13;;;2.63;;
82005;SDS011;71529;47.484;19.064;2023-07-22T13:09:58;5.40;;;4.32;;
82005;SDS011;71529;47.484;19.064;2023-07-22T13:12:28;13.45;;;9.02;;
82005;SDS011;71529;47.484;19.064;2023-07-22T13:14:56;8.30;;;5.70;;
82005;SDS011;71529;47.484;19.064;2023-07-22T13:17:24;10.32;;;5.20;;
82005;SDS011;71529;47.484;19.064;2023-07-22T13:19:54;6.55;;;2.78;;
82005;SDS011;71529;47.484;19.064;2023-07-22T13:22:22;3.90;;;2.80;;
82005;SDS011;71529;47.484;19.064;2023-07-22T13:24:50;4.82;;;2.30;;
82005;SDS011;71529;47.484;19.064;2023-07-22T13:27:18;5.40;;;2.60;;
82005;SDS011;71529;47.484;19.064;2023-07-22T13:29:46;9.20;;;3.53;;
82005;SDS011;71529;47.484;19.064;2023-07-22T13:32:14;4.35;;;2.70;;
82005;SDS011;71529;47.484;19.064;2023-07-22T13:34:42;8.48;;;3.90;;
82005;SDS011;71529;47.484;19.064;2023-07-22T13:37:12;14.52;;;6.40;;
82005;SDS011;71529;47.484;19.064;2023-07-22T13:39:40;14.98;;;6.65;;
82005;SDS011;71529;47.484;19.064;2023-07-22T13:42:08;10.68;;;6.63;;
82005;SDS011;71529;47.484;19.064;2023-07-22T13:44:36;10.88;;;6.53;;
82005;SDS011;71529;47.484;19.064;2023-07-22T13:47:06;25.60;;;6.55;;
82005;SDS011;71529;47.484;19.064;2023-07-22T13:49:34;19.08;;;7.75;;
82005;SDS011;71529;47.484;19.064;2023-07-22T13:52:02;16.77;;;7.70;;
82005;SDS011;71529;47.484;19.064;2023-07-22T13:54:32;25.15;;;11.13;;
82005;SDS011;71529;47.484;19.064;2023-07-22T13:57:00;13.57;;;7.05;;
82005;SDS011;71529;47.484;19.064;2023-07-22T13:59:28;9.60;;;4.63;;
82005;SDS011;71529;47.484;19.064;2023-07-22T14:01:56;7.93;;;3.05;;
82005;SDS011;71529;47.484;19.064;2023-07-22T14:04:24;6.35;;;3.25;;
82005;SDS011;71529;47.484;19.064;2023-07-22T14:06:52;12.82;;;4.22;;
82005;SDS011;71529;47.484;19.064;2023-07-22T14:09:21;8.25;;;3.80;;
82005;SDS011;71529;47.484;19.064;2023-07-22T14:11:50;11.07;;;5.25;;
82005;SDS011;71529;47.484;19.064;2023-07-22T14:14:18;22.17;;;8.00;;
82005;SDS011;71529;47.484;19.064;2023-07-22T14:16:50;22.77;;;11.68;;
82005;SDS011;71529;47.484;19.064;2023-07-22T14:19:19;15.18;;;9.40;;
82005;SDS011;71529;47.484;19.064;2023-07-22T14:21:47;14.52;;;9.05;;
82005;SDS011;71529;47.484;19.064;2023-07-22T14:24:15;9.07;;;4.57;;
82005;SDS011;71529;47.484;19.064;2023-07-22T14:26:43;9.15;;;5.00;;
82005;SDS011;71529;47.484;19.064;2023-07-22T14:29:13;12.35;;;4.93;;
82005;SDS011;71529;47.484;19.064;2023-07-22T14:31:42;14.27;;;6.00;;
82005;SDS011;71529;47.484;19.064;2023-07-22T14:34:10;5.85;;;4.03;;
82005;SDS011;71529;47.484;19.064;2023-07-22T14:36:39;5.72;;;3.60;;
82005;SDS011;71529;47.484;19.064;2023-07-22T14:39:11;5.43;;;3.00;;
82005;SDS011;71529;47.484;19.064;2023-07-22T14:41:40;7.05;;;3.95;;
82005;SDS011;71529;47.484;19.064;2023-07-22T14:44:08;6.22;;;3.22;;
82005;SDS011;71529;47.484;19.064;2023-07-22T14:46:38;7.22;;;4.35;;